createdAt,value
2022-11-29T00:03:47.260Z,0.53
2022-11-29T00:09:36.246Z,0.50
2022-11-29T00:15:39.712Z,0.47
2022-11-29T00:22:02.010Z,0.47
2022-11-29T00:27:49.825Z,0.49
2022-11-29T00:33:12.355Z,0.47
2022-11-29T00:39:13.862Z,0.44
2022-11-29T00:44:37.704Z,0.44
2022-11-29T00:50:08.611Z,0.42
2022-11-29T00:55:50.027Z,0.39
2022-11-29T01:01:13.294Z,0.34
2022-11-29T01:06:56.443Z,0.35
2022-11-29T01:13:18.830Z,0.39
2022-11-29T01:19:16.592Z,0.41
2022-11-29T01:25:03.752Z,0.36
2022-11-29T01:30:33.450Z,0.30
2022-11-29T01:36:33.160Z,0.31
2022-11-29T01:42:00.872Z,0.23
2022-11-29T01:47:25.375Z,0.22
2022-11-29T01:52:56.656Z,0.19
2022-11-29T01:58:23.205Z,0.14
2022-11-29T02:03:47.249Z,0.17
2022-11-29T02:09:36.832Z,0.16
2022-11-29T02:15:57.993Z,0.11
2022-11-29T02:21:38.485Z,0.05
2022-11-29T02:27:41.177Z,0.05
2022-11-29T02:33:35.944Z,0.02
2022-11-29T02:39:49.375Z,-0.02
2022-11-29T02:45:26.372Z,-0.14
2022-11-29T02:51:27.788Z,-0.20
2022-11-29T02:57:05.128Z,-0.19
2022-11-29T03:02:51.940Z,-0.26
2022-11-29T03:09:02.996Z,-0.31
2022-11-29T03:15:43.195Z,-0.27
2022-11-29T03:22:12.150Z,-0.27
2022-11-29T03:28:08.974Z,-0.34
2022-11-29T03:34:12.361Z,-0.41
2022-11-29T03:40:10.237Z,-0.39
2022-11-29T03:46:05.857Z,-0.40
2022-11-29T03:51:49.921Z,-0.44
2022-11-29T03:57:19.484Z,-0.48
2022-11-29T04:03:31.838Z,-0.47
2022-11-29T04:09:48.818Z,-0.44
2022-11-29T04:15:34.776Z,-0.46
2022-11-29T04:21:50.012Z,-0.51
2022-11-29T04:27:49.703Z,-0.51
2022-11-29T04:33:59.766Z,-0.67
2022-11-29T04:40:16.997Z,-0.82
2022-11-29T04:46:18.028Z,-0.96
2022-11-29T04:59:51.750Z,-1.06
2022-11-29T05:06:10.917Z,-1.12
2022-11-29T06:03:37.502Z,-1.22
2022-11-29T06:09:11.343Z,-1.16
2022-11-29T06:15:54.530Z,-1.03
2022-11-29T06:22:07.019Z,-0.97
2022-11-29T06:28:44.463Z,-0.98
2022-11-29T06:35:38.506Z,-1.07
2022-11-29T07:08:29.136Z,-0.91
2022-11-29T07:22:10.779Z,-0.95
2022-11-29T07:29:03.339Z,-0.87
2022-11-29T07:35:50.134Z,-0.72
2022-11-29T07:42:59.948Z,-0.65
2022-11-29T07:49:45.007Z,-0.70
2022-11-29T07:56:29.073Z,-0.61
2022-11-29T08:03:13.800Z,-0.60
2022-11-29T08:10:01.848Z,-0.59
2022-11-29T08:16:44.658Z,-0.54
2022-11-29T08:23:27.575Z,-0.38
2022-11-29T08:30:09.573Z,-0.25
2022-11-29T08:36:34.220Z,-0.13
2022-11-29T08:42:58.226Z,-0.03
2022-11-29T08:49:40.915Z,0.07
2022-11-29T08:56:31.719Z,0.21
2022-11-29T09:03:11.336Z,0.29
2022-11-29T09:10:00.044Z,0.49
2022-11-29T09:16:43.242Z,0.66
2022-11-29T09:23:26.049Z,0.63
2022-11-29T09:29:50.374Z,0.76
2022-11-29T09:36:36.547Z,0.88
2022-11-29T09:43:41.451Z,1.05
2022-11-29T09:50:29.830Z,1.28
2022-11-29T09:56:41.321Z,1.50
2022-11-29T10:03:44.328Z,1.74
2022-11-29T10:10:30.084Z,1.73
2022-11-29T10:17:24.386Z,1.96
2022-11-29T10:24:32.318Z,2.20
2022-11-29T10:39:14.907Z,2.41
2022-11-29T10:46:01.983Z,2.55
2022-11-29T10:53:02.138Z,2.98
2022-11-29T11:00:03.649Z,3.30
2022-11-29T11:06:47.813Z,3.59
2022-11-29T11:27:07.241Z,3.60
2022-11-29T11:33:45.215Z,3.59
2022-11-29T11:40:27.600Z,3.79
2022-11-29T11:46:53.428Z,4.17
2022-11-29T11:53:28.347Z,4.49
2022-11-29T12:00:00.755Z,4.61
2022-11-29T12:06:45.567Z,4.77
2022-11-29T12:12:33.589Z,4.97
2022-11-29T12:18:26.016Z,5.08
2022-11-29T12:24:05.273Z,5.20
2022-11-29T12:29:32.272Z,5.43
2022-11-29T12:35:22.349Z,5.67
2022-11-29T12:41:07.737Z,5.92
2022-11-29T12:46:31.537Z,6.09
2022-11-29T12:52:21.542Z,6.25
2022-11-29T12:58:22.736Z,6.26
2022-11-29T13:04:34.962Z,6.03
2022-11-29T13:10:18.435Z,5.95
2022-11-29T13:16:23.948Z,5.96
2022-11-29T13:21:57.012Z,5.91
2022-11-29T13:27:25.639Z,5.79
2022-11-29T13:33:13.073Z,5.68
2022-11-29T13:38:46.094Z,5.41
2022-11-29T13:44:30.773Z,5.15
2022-11-29T13:50:31.471Z,4.91
2022-11-29T13:56:02.924Z,4.80
2022-11-29T14:01:27.081Z,4.75
2022-11-29T14:06:50.919Z,4.62
2022-11-29T14:12:49.608Z,4.51
2022-11-29T14:19:18.228Z,4.36
2022-11-29T14:25:11.774Z,4.17
2022-11-29T14:31:45.622Z,4.00
2022-11-29T14:38:33.916Z,3.78
2022-11-29T14:44:28.229Z,3.51
2022-11-29T14:50:29.720Z,3.32
2022-11-29T14:55:51.736Z,3.13
2022-11-29T15:01:18.574Z,3.01
2022-11-29T15:06:47.463Z,2.95
2022-11-29T15:13:16.427Z,2.96
2022-11-29T15:20:06.396Z,2.97
2022-11-29T15:26:37.524Z,2.87
2022-11-29T15:32:33.896Z,2.70
2022-11-29T15:37:57.213Z,2.61
2022-11-29T15:43:36.921Z,2.50
2022-11-29T15:49:18.409Z,2.28
2022-11-29T15:54:47.543Z,2.14
2022-11-29T16:00:38.389Z,1.99
2022-11-29T16:06:32.101Z,1.84
2022-11-29T16:12:54.337Z,1.77
2022-11-29T16:19:37.399Z,1.65
2022-11-29T16:25:16.699Z,1.57
2022-11-29T16:30:42.331Z,1.44
2022-11-29T16:36:17.891Z,1.37
2022-11-29T16:41:39.805Z,1.31
2022-11-29T16:47:18.018Z,1.24
2022-11-29T16:52:42.109Z,1.07
2022-11-29T16:58:25.149Z,0.93
2022-11-29T17:03:50.355Z,0.88
2022-11-29T17:09:25.181Z,0.73
2022-11-29T17:14:48.848Z,0.48
2022-11-29T17:21:00.180Z,0.30
2022-11-29T17:27:23.646Z,0.15
2022-11-29T17:33:00.935Z,-0.01
2022-11-29T17:39:44.204Z,-0.29
2022-11-29T17:46:26.398Z,-0.55
2022-11-29T17:51:52.974Z,-0.50
2022-11-29T17:57:43.797Z,-0.42
2022-11-29T18:04:07.857Z,-0.39
2022-11-29T18:10:50.818Z,-0.37
2022-11-29T18:17:33.361Z,-0.33
2022-11-29T18:24:16.465Z,-0.36
2022-11-29T18:31:00.750Z,-0.37
2022-11-29T18:36:46.629Z,-0.30
2022-11-29T18:43:13.956Z,-0.42
2022-11-29T18:50:02.025Z,-0.53
2022-11-29T18:56:53.052Z,-0.53
2022-11-29T19:03:36.056Z,-0.42
2022-11-29T19:10:19.162Z,-0.33
2022-11-29T19:17:03.419Z,-0.24
2022-11-29T19:23:47.380Z,-0.48
2022-11-29T19:30:12.454Z,-0.67
2022-11-29T19:35:43.860Z,-0.59
2022-11-29T19:42:14.086Z,-0.52
2022-11-29T19:55:01.106Z,-0.37
2022-11-29T20:01:44.222Z,-0.38
2022-11-29T20:08:27.837Z,-0.50
2022-11-29T20:15:10.590Z,-0.43
2022-11-29T20:21:53.061Z,-0.35
2022-11-29T20:28:36.059Z,-0.30
2022-11-29T20:34:39.293Z,-0.22
2022-11-29T20:41:33.741Z,-0.04
2022-11-29T20:48:25.117Z,0.10
2022-11-29T20:54:48.298Z,0.28
2022-11-29T21:00:35.248Z,0.28
2022-11-29T21:06:22.344Z,0.18
2022-11-29T21:12:06.686Z,0.02
2022-11-29T21:18:11.362Z,-0.01
2022-11-29T21:24:35.117Z,0.08
2022-11-29T21:30:18.535Z,0.09
2022-11-29T21:35:40.664Z,0.18
2022-11-29T21:42:03.486Z,0.24
2022-11-29T21:48:55.821Z,0.03
2022-11-29T21:55:39.028Z,-0.01
2022-11-29T22:01:22.031Z,0.04
2022-11-29T22:07:43.973Z,-0.01
2022-11-29T22:14:34.840Z,-0.25
2022-11-29T22:21:34.727Z,-0.34
2022-11-29T22:50:25.648Z,-0.17
2022-11-29T22:56:54.798Z,-0.09
2022-11-29T23:03:05.773Z,0.10
2022-11-29T23:29:13.404Z,-0.05
2022-11-29T23:35:56.206Z,-0.30
2022-11-29T23:42:19.063Z,-0.46
2022-11-29T23:49:01.440Z,-0.54
2022-11-29T23:55:43.691Z,-0.59
